Time;durP1;ratioP1;P1;durP2;ratioP2;P2;SDS_P1;SDS_P2;PMS_P1;PMS_P2;Temp;Humidity;BMP_temperature;BMP_pressure;BME280_temperature;BME280_humidity;BME280_pressure;Samples;Min_cycle;Max_cycle;Signal;HPM_P1;HPM_P2
2022/01/11 00:01:48;;;;;;;78.28;34.60;;;;;;;-4.02;82.60;102258.08;1757576;81;27061;-70
2022/01/11 00:04:16;;;;;;;69.67;32.08;;;;;;;-4.05;82.61;102260.31;1757188;81;21797;-71
2022/01/11 00:06:46;;;;;;;78.30;34.70;;;;;;;-4.06;82.66;102263.80;1757237;81;21483;-71
2022/01/11 00:09:21;;;;;;;140.88;52.93;;;;;;;-4.06;82.66;102267.70;1757126;81;21003;-71
2022/01/11 00:11:48;;;;;;;85.60;37.23;;;;;;;-4.05;82.68;102265.52;1757313;81;21030;-71
2022/01/11 00:14:14;;;;;;;76.70;34.90;;;;;;;-4.08;82.70;102272.06;1757413;81;21526;-71
2022/01/11 00:16:40;;;;;;;85.30;38.20;;;;;;;-4.12;82.72;102269.14;1757010;81;21141;-70
2022/01/11 00:19:06;;;;;;;81.65;37.17;;;;;;;-4.17;82.75;102279.64;1756910;81;26485;-71
2022/01/11 00:21:39;;;;;;;105.80;46.23;;;;;;;-4.21;82.76;102282.33;1757259;81;21496;-71
2022/01/11 00:26:48;;;;;;;94.80;41.63;;;;;;;-4.30;82.78;102286.42;1757506;81;21586;-71
2022/01/11 00:29:14;;;;;;;92.45;39.03;;;;;;;-4.28;82.79;102292.45;1757181;81;21780;-71
2022/01/11 00:31:40;;;;;;;97.10;39.67;;;;;;;-4.31;82.80;102284.26;1757286;81;26525;-70
2022/01/11 00:34:08;;;;;;;85.85;38.13;;;;;;;-4.33;82.79;102277.37;1757207;81;21007;-71
2022/01/11 00:36:42;;;;;;;134.93;48.08;;;;;;;-4.34;82.80;102289.97;1757365;81;21479;-71
2022/01/11 00:39:02;;;;;;;359.77;143.93;;;;;;;-4.36;82.85;102300.87;1757212;81;21054;-71
2022/01/11 00:41:28;;;;;;;91.65;36.53;;;;;;;-4.40;82.87;102297.91;1757137;80;21471;-71
2022/01/11 00:43:54;;;;;;;182.15;70.60;;;;;;;-4.42;82.90;102299.66;1757266;81;20986;-70
2022/01/11 00:46:20;;;;;;;85.60;36.10;;;;;;;-4.45;82.91;102300.58;1757260;81;21053;-70
2022/01/11 00:48:45;;;;;;;107.55;41.13;;;;;;;-4.45;82.94;102295.81;1757342;81;28238;-71
2022/01/11 00:51:12;;;;;;;112.50;38.92;;;;;;;-4.48;82.93;102303.69;1756554;81;21006;-71
2022/01/11 00:53:40;;;;;;;99.42;39.53;;;;;;;-4.56;82.91;102304.69;1757142;81;21147;-71
2022/01/11 00:56:06;;;;;;;93.52;38.85;;;;;;;-4.56;82.95;102303.38;1757111;81;21054;-71
2022/01/11 00:58:32;;;;;;;94.25;39.63;;;;;;;-4.58;82.98;102303.87;1757339;81;21046;-71
2022/01/11 01:00:58;;;;;;;81.40;35.00;;;;;;;-4.59;83.00;102311.69;1757362;81;21006;-70
2022/01/11 01:03:25;;;;;;;89.37;39.03;;;;;;;-4.58;83.02;102306.47;1756877;81;21038;-70
2022/01/11 01:05:51;;;;;;;96.72;42.48;;;;;;;-4.55;83.03;102307.71;1757450;81;21132;-70
2022/01/11 01:08:17;;;;;;;91.45;41.10;;;;;;;-4.57;83.03;102302.95;1756885;81;20995;-71
2022/01/11 01:10:46;;;;;;;122.40;55.75;;;;;;;-4.56;83.05;102309.03;1756833;81;21105;-71
2022/01/11 01:13:16;;;;;;;210.75;84.62;;;;;;;-4.56;83.07;102315.09;1757345;81;21783;-70
2022/01/11 01:15:42;;;;;;;227.47;93.80;;;;;;;-4.61;83.11;102313.00;1755496;81;21099;-71
2022/01/11 01:18:11;;;;;;;119.40;52.05;;;;;;;-4.64;83.13;102314.36;1756986;81;21034;-70
2022/01/11 01:20:36;;;;;;;95.50;42.78;;;;;;;-4.68;83.15;102311.39;1756965;81;21054;-70
2022/01/11 01:23:02;;;;;;;96.28;43.60;;;;;;;-4.70;83.15;102317.08;1757335;81;21035;-70
2022/01/11 01:25:28;;;;;;;130.60;59.53;;;;;;;-4.73;83.16;102315.84;1757127;81;21005;-70
2022/01/11 01:27:54;;;;;;;98.15;41.58;;;;;;;-4.76;83.17;102314.59;1757229;81;21045;-71
2022/01/11 01:30:21;;;;;;;102.92;43.83;;;;;;;-4.81;83.18;102315.09;1748811;78;107261;-71
2022/01/11 01:32:49;;;;;;;104.15;44.05;;;;;;;-4.90;83.18;102311.36;1741575;80;21035;-71
2022/01/11 01:35:18;;;;;;;102.78;45.60;;;;;;;-4.93;83.19;102313.16;1744646;82;21001;-71
2022/01/11 01:37:44;;;;;;;109.17;45.15;;;;;;;-4.96;83.19;102311.44;1742591;82;21048;-70
2022/01/11 01:40:12;;;;;;;102.70;43.73;;;;;;;-4.92;83.19;102309.64;1740787;81;26598;-71
2022/01/11 01:42:38;;;;;;;106.70;45.15;;;;;;;-4.87;83.19;102315.64;1741286;82;21365;-71
2022/01/11 01:45:05;;;;;;;99.30;40.65;;;;;;;-4.93;83.19;102319.22;1741210;82;20980;-71
2022/01/11 01:47:31;;;;;;;102.40;44.85;;;;;;;-4.98;83.20;102319.72;1741215;82;21001;-70
2022/01/11 01:49:57;;;;;;;90.92;40.12;;;;;;;-4.99;83.22;102331.44;1740778;82;21469;-71
2022/01/11 01:52:25;;;;;;;105.05;45.17;;;;;;;-5.03;83.20;102320.69;1741209;82;21528;-70
2022/01/11 01:54:52;;;;;;;101.05;44.23;;;;;;;-5.04;83.23;102322.42;1740999;82;21151;-70
2022/01/11 01:57:18;;;;;;;122.58;52.45;;;;;;;-5.06;83.23;102320.27;1740932;82;21048;-70
2022/01/11 01:59:44;;;;;;;121.80;51.73;;;;;;;-5.06;83.25;102333.27;1741245;82;21469;-70
2022/01/11 02:02:11;;;;;;;115.45;51.08;;;;;;;-5.11;83.26;102335.11;1740979;82;21520;-70
2022/01/11 02:04:37;;;;;;;123.70;50.28;;;;;;;-5.18;83.25;102332.19;1741238;82;21024;-70
2022/01/11 02:07:04;;;;;;;112.70;46.50;;;;;;;-5.22;83.23;102339.61;1740811;82;21122;-70
2022/01/11 02:09:30;;;;;;;119.20;47.53;;;;;;;-5.30;83.23;102337.55;1741403;82;21020;-71
2022/01/11 02:11:56;;;;;;;108.78;46.95;;;;;;;-5.28;83.25;102335.37;1741144;82;21004;-70
2022/01/11 02:14:22;;;;;;;115.17;48.55;;;;;;;-5.27;83.23;102335.77;1741092;82;28257;-70
2022/01/11 02:16:48;;;;;;;117.30;48.85;;;;;;;-5.34;83.19;102341.06;1741115;82;21029;-71
2022/01/11 02:19:14;;;;;;;122.02;47.90;;;;;;;-5.41;83.21;102343.33;1741037;82;21336;-70
2022/01/11 02:21:41;;;;;;;102.00;44.23;;;;;;;-5.45;83.20;102341.22;1741002;82;21052;-71
2022/01/11 02:24:07;;;;;;;106.03;45.30;;;;;;;-5.48;83.24;102344.30;1741146;82;21056;-70
2022/01/11 02:26:33;;;;;;;106.20;45.98;;;;;;;-5.53;83.25;102344.81;1741168;82;21057;-70
2022/01/11 02:28:59;;;;;;;104.23;43.58;;;;;;;-5.53;83.26;102344.38;1741824;81;26457;-70
2022/01/11 02:31:25;;;;;;;122.67;49.53;;;;;;;-5.52;83.25;102345.25;1774318;80;21816;-70
2022/01/11 02:33:57;;;;;;;112.45;45.43;;;;;;;-5.59;83.27;102347.91;1777073;80;20993;-70
2022/01/11 02:36:27;;;;;;;105.52;47.40;;;;;;;-5.60;83.26;102348.80;1777504;80;21020;-70
2022/01/11 02:38:54;;;;;;;98.85;42.35;;;;;;;-5.66;83.26;102344.96;1777627;80;21032;-70
2022/01/11 02:41:21;;;;;;;99.35;42.35;;;;;;;-5.74;83.25;102335.13;1777726;80;21044;-70
2022/01/11 02:43:48;;;;;;;104.43;42.03;;;;;;;-5.80;83.24;102340.38;1777598;80;21155;-70
2022/01/11 02:46:16;;;;;;;113.20;48.23;;;;;;;-5.82;83.24;102343.45;1777398;80;21073;-70
2022/01/11 02:48:42;;;;;;;98.10;42.40;;;;;;;-5.86;83.22;102345.69;1777407;80;21513;-70
2022/01/11 02:51:08;;;;;;;94.00;41.73;;;;;;;-5.88;83.23;102338.37;1777375;80;21477;-70
2022/01/11 02:53:45;;;;;;;96.90;41.23;;;;;;;-5.91;83.22;102346.17;1777018;80;21103;-70
2022/01/11 02:56:11;;;;;;;85.35;38.85;;;;;;;-5.95;83.18;102345.81;1777589;80;21744;-70
2022/01/11 02:58:37;;;;;;;90.32;38.10;;;;;;;-5.96;83.20;102345.39;1777375;80;21012;-70
2022/01/11 03:01:04;;;;;;;103.90;41.25;;;;;;;-5.91;83.19;102347.47;1777566;80;21044;-70
2022/01/11 03:03:30;;;;;;;103.17;42.67;;;;;;;-5.91;83.20;102350.06;1776710;80;21029;-70
2022/01/11 03:05:58;;;;;;;96.45;41.48;;;;;;;-5.94;83.21;102355.30;1777686;80;21036;-70
2022/01/11 03:08:29;;;;;;;89.62;37.98;;;;;;;-5.90;83.21;102359.59;1777541;80;21134;-70
2022/01/11 03:10:55;;;;;;;98.45;42.03;;;;;;;-5.89;83.20;102360.02;1777254;80;21028;-70
2022/01/11 03:13:21;;;;;;;89.67;40.78;;;;;;;-5.89;83.21;102365.65;1777535;80;21056;-70
2022/01/11 03:15:48;;;;;;;98.35;43.23;;;;;;;-5.91;83.22;102371.31;1777043;80;21024;-70
2022/01/11 03:18:14;;;;;;;93.20;39.58;;;;;;;-5.99;83.22;102363.60;1777359;80;21084;-70
2022/01/11 03:20:42;;;;;;;87.02;38.73;;;;;;;-6.03;83.22;102363.20;1777021;80;21691;-70
2022/01/11 03:23:08;;;;;;;90.17;40.33;;;;;;;-6.08;83.19;102363.25;1777586;80;21001;-70
2022/01/11 03:25:34;;;;;;;90.87;45.73;;;;;;;-6.13;83.17;102361.59;1777410;80;21008;-70
2022/01/11 03:28:02;;;;;;;107.70;44.48;;;;;;;-6.16;83.16;102360.34;1777342;80;21075;-70
2022/01/11 03:30:28;;;;;;;98.80;39.65;;;;;;;-6.25;83.14;102364.30;1777295;79;21016;-70
2022/01/11 03:32:54;;;;;;;107.43;44.40;;;;;;;-6.37;83.13;102368.34;1771746;80;21189;-70
2022/01/11 03:35:20;;;;;;;107.70;44.20;;;;;;;-6.42;83.14;102367.51;1771896;80;25948;-70
2022/01/11 03:37:47;;;;;;;108.42;43.58;;;;;;;-6.44;83.11;102373.16;1771267;80;21068;-70
2022/01/11 03:40:17;;;;;;;115.60;46.83;;;;;;;-6.46;83.12;102374.89;1771713;81;21044;-70
2022/01/11 03:42:43;;;;;;;182.75;75.95;;;;;;;-6.47;83.11;102374.49;1771835;81;21025;-70
2022/01/11 03:45:10;;;;;;;198.80;83.70;;;;;;;-6.47;83.11;102378.38;1771603;81;21797;-70
2022/01/11 03:47:37;;;;;;;160.90;68.80;;;;;;;-6.48;83.11;102379.25;1771161;81;21029;-70
2022/01/11 03:50:05;;;;;;;160.88;66.77;;;;;;;-6.49;83.11;102378.81;1771859;81;21000;-70
2022/01/11 03:52:31;;;;;;;156.30;65.50;;;;;;;-6.47;83.11;102383.57;1771565;81;21001;-70
2022/01/11 03:57:25;;;;;;;123.67;52.38;;;;;;;-6.38;83.14;102378.28;1771816;81;21202;-70
2022/01/11 03:59:51;;;;;;;130.00;51.80;;;;;;;-6.39;83.17;102377.85;1771514;81;20997;-70
2022/01/11 04:02:18;;;;;;;113.65;48.00;;;;;;;-6.44;83.16;102373.16;1771622;81;21072;-70
2022/01/11 04:04:52;;;;;;;116.40;50.03;;;;;;;-6.47;83.15;102373.20;1771704;81;20997;-70
2022/01/11 04:07:12;;;;;;;108.90;47.33;;;;;;;-6.52;83.13;102371.93;1770439;80;21044;-70
2022/01/11 04:09:38;;;;;;;114.28;47.03;;;;;;;-6.55;83.14;102373.69;1771244;80;21126;-70
2022/01/11 04:12:05;;;;;;;117.82;48.05;;;;;;;-6.54;83.16;102375.42;1771310;80;21037;-70
2022/01/11 04:14:31;;;;;;;116.00;49.73;;;;;;;-6.50;83.14;102373.19;1772007;80;21048;-70
2022/01/11 04:16:57;;;;;;;104.17;47.50;;;;;;;-6.53;83.15;102371.93;1771230;81;20985;-70
2022/01/11 04:19:23;;;;;;;98.42;44.40;;;;;;;-6.50;83.17;102377.09;1771661;81;26591;-70
2022/01/11 04:21:49;;;;;;;108.55;46.30;;;;;;;-6.49;83.14;102380.11;1771716;80;21604;-70
2022/01/11 04:24:15;;;;;;;110.45;47.80;;;;;;;-6.53;83.16;102381.01;1771358;80;21159;-70
2022/01/11 04:26:41;;;;;;;114.57;48.58;;;;;;;-6.56;83.14;102379.31;1771770;80;20981;-70
2022/01/11 04:29:07;;;;;;;118.72;48.78;;;;;;;-6.61;83.14;102383.23;1771252;79;21024;-70
2022/01/11 04:31:33;;;;;;;150.65;59.10;;;;;;;-6.64;83.14;102383.69;1771574;80;21041;-70
2022/01/11 04:33:59;;;;;;;117.70;51.02;;;;;;;-6.74;83.06;102387.23;1771575;81;21562;-70
2022/01/11 04:36:25;;;;;;;128.65;52.23;;;;;;;-6.73;83.08;102388.54;1771795;81;25104;-70
2022/01/11 04:38:51;;;;;;;119.28;50.35;;;;;;;-6.72;83.07;102387.64;1771677;81;21016;-70
2022/01/11 04:41:17;;;;;;;135.12;52.90;;;;;;;-6.74;83.08;102388.10;1771580;81;21008;-70
2022/01/11 04:43:43;;;;;;;133.55;49.70;;;;;;;-6.76;83.05;102388.56;1771707;80;21067;-69
2022/01/11 04:46:09;;;;;;;147.35;59.45;;;;;;;-6.79;83.06;102394.22;1771467;81;21129;-70
2022/01/11 04:48:35;;;;;;;153.97;55.70;;;;;;;-6.85;83.07;102389.91;1771594;81;21004;-70
2022/01/11 04:51:03;;;;;;;153.62;59.58;;;;;;;-6.89;83.08;102394.69;1771708;81;21490;-70
2022/01/11 04:53:29;;;;;;;165.18;66.12;;;;;;;-6.90;83.08;102398.18;1771801;81;20994;-70
2022/01/11 04:55:55;;;;;;;147.30;63.05;;;;;;;-6.87;83.08;102399.45;1771514;80;26450;-70
2022/01/11 04:58:21;;;;;;;131.50;59.42;;;;;;;-6.87;83.06;102402.05;1771714;80;21303;-70
2022/01/11 05:00:48;;;;;;;129.42;54.45;;;;;;;-6.88;83.08;102408.52;1771448;81;21512;-70
2022/01/11 05:03:14;;;;;;;124.00;54.73;;;;;;;-6.89;83.10;102399.87;1771454;81;20993;-70
2022/01/11 05:05:40;;;;;;;122.98;50.08;;;;;;;-6.89;83.12;102396.42;1771800;80;28204;-70
2022/01/11 05:08:06;;;;;;;125.30;50.08;;;;;;;-6.89;83.11;102400.31;1771389;80;21492;-70
2022/01/11 05:10:32;;;;;;;129.55;55.67;;;;;;;-6.87;83.09;102398.59;1771610;80;21130;-70
2022/01/11 05:12:58;;;;;;;135.45;55.75;;;;;;;-6.82;83.09;102401.55;1771599;80;20993;-70
2022/01/11 05:15:28;;;;;;;143.32;56.75;;;;;;;-6.80;83.08;102398.53;1771747;81;21476;-69
2022/01/11 05:17:54;;;;;;;125.97;54.80;;;;;;;-6.87;83.03;102401.17;1771562;80;21021;-69
2022/01/11 05:20:20;;;;;;;137.43;55.83;;;;;;;-6.95;83.02;102402.52;1771618;80;21047;-69
2022/01/11 05:22:47;;;;;;;222.33;83.67;;;;;;;-6.96;83.03;102414.19;1771762;80;21129;-70
2022/01/11 05:25:14;;;;;;;150.85;60.88;;;;;;;-6.92;83.04;102421.95;1771345;81;21505;-70
2022/01/11 05:27:41;;;;;;;133.30;56.80;;;;;;;-6.90;83.01;102431.89;1771778;80;20997;-70
2022/01/11 05:30:08;;;;;;;132.22;54.48;;;;;;;-6.88;83.01;102435.32;1771286;79;20981;-70
2022/01/11 05:32:35;;;;;;;144.50;58.90;;;;;;;-6.96;83.01;102427.15;1744766;80;21031;-70
2022/01/11 05:35:05;;;;;;;145.15;61.20;;;;;;;-6.94;83.00;102426.30;1741180;82;21651;-69
2022/01/11 05:37:31;;;;;;;148.87;63.65;;;;;;;-7.02;82.97;102430.66;1732259;82;21584;-69
2022/01/11 05:39:58;;;;;;;165.32;67.45;;;;;;;-6.98;82.97;102434.95;1725596;81;24274;-70
2022/01/11 05:42:26;;;;;;;155.67;61.68;;;;;;;-6.89;82.97;102441.37;1725362;83;21017;-70
2022/01/11 05:44:52;;;;;;;161.95;65.50;;;;;;;-6.88;82.95;102450.02;1725568;83;21022;-70
2022/01/11 05:47:18;;;;;;;165.15;64.30;;;;;;;-6.90;82.97;102450.47;1725395;83;21107;-69
2022/01/11 05:49:44;;;;;;;168.33;66.97;;;;;;;-6.98;82.96;102456.99;1742349;82;26995;-70
2022/01/11 05:52:10;;;;;;;185.80;73.57;;;;;;;-7.03;82.93;102449.66;1741074;82;25258;-70
2022/01/11 05:54:36;;;;;;;194.45;79.15;;;;;;;-7.06;82.92;102449.69;1741049;82;21027;-70
2022/01/11 05:57:02;;;;;;;165.88;71.72;;;;;;;-7.10;82.93;102450.14;1741979;82;20990;-70
2022/01/11 05:59:28;;;;;;;185.35;75.25;;;;;;;-7.06;82.95;102443.20;1745984;82;21110;-70
2022/01/11 06:01:54;;;;;;;194.80;76.35;;;;;;;-7.09;82.94;102457.48;1745558;80;21049;-69
2022/01/11 06:04:20;;;;;;;300.17;99.93;;;;;;;-7.08;82.94;102448.84;1741232;82;26078;-69
2022/01/11 06:06:46;;;;;;;379.32;115.62;;;;;;;-7.13;82.92;102447.56;1725827;83;21587;-69
2022/01/11 06:09:12;;;;;;;273.07;97.82;;;;;;;-7.17;82.92;102452.77;1731454;82;26466;-70
2022/01/11 06:11:38;;;;;;;407.12;129.82;;;;;;;-7.21;82.89;102449.33;1741221;82;21852;-70
2022/01/11 06:14:04;;;;;;;348.68;119.13;;;;;;;-7.20;82.90;102456.67;1741160;81;20999;-70
2022/01/11 06:16:30;;;;;;;352.10;113.68;;;;;;;-7.19;82.92;102461.00;1740985;81;21542;-70
2022/01/11 06:18:56;;;;;;;270.95;100.95;;;;;;;-7.19;82.93;102464.88;1741151;82;20982;-70
2022/01/11 06:21:22;;;;;;;276.65;98.17;;;;;;;-7.21;82.94;102466.17;1743047;81;21381;-70
2022/01/11 06:23:49;;;;;;;215.28;80.42;;;;;;;-7.21;82.99;102463.58;1745953;82;21983;-69
2022/01/11 06:26:15;;;;;;;201.92;79.75;;;;;;;-7.13;82.95;102471.33;1746081;81;20986;-69
2022/01/11 06:28:42;;;;;;;161.25;67.95;;;;;;;-7.07;82.92;102476.47;1745178;82;21049;-69
2022/01/11 06:31:08;;;;;;;214.80;77.08;;;;;;;-7.06;82.93;102479.50;1743117;81;21038;-69
2022/01/11 06:33:34;;;;;;;182.43;71.07;;;;;;;-7.10;82.92;102482.97;1740571;82;21085;-70
2022/01/11 06:36:00;;;;;;;222.95;80.65;;;;;;;-7.17;82.91;102487.75;1741753;82;21195;-70
2022/01/11 06:38:27;;;;;;;223.60;79.67;;;;;;;-7.24;82.88;102487.35;1742671;82;21069;-69
2022/01/11 06:40:53;;;;;;;197.68;68.20;;;;;;;-7.24;82.88;102489.52;1740556;82;21006;-70
2022/01/11 06:43:19;;;;;;;187.37;65.30;;;;;;;-7.21;82.88;102489.50;1740486;82;28232;-69
2022/01/11 06:45:45;;;;;;;241.48;79.60;;;;;;;-7.25;82.88;102489.54;1737439;82;21117;-70
2022/01/11 06:48:11;;;;;;;219.35;76.22;;;;;;;-7.25;82.89;102493.00;1740017;82;21207;-70
2022/01/11 06:50:37;;;;;;;234.03;79.60;;;;;;;-7.24;82.86;102499.02;1740661;82;21086;-70
2022/01/11 06:53:03;;;;;;;242.72;83.03;;;;;;;-7.25;82.87;102502.50;1740154;82;21065;-70
2022/01/11 06:55:29;;;;;;;233.15;76.40;;;;;;;-7.24;82.86;102511.97;1751124;80;21015;-69
2022/01/11 06:57:55;;;;;;;216.27;71.92;;;;;;;-7.23;82.85;102515.00;1718351;82;21000;-69
2022/01/11 07:00:21;;;;;;;208.20;72.53;;;;;;;-7.20;82.87;102516.28;1750770;80;21158;-69
2022/01/11 07:02:50;;;;;;;206.87;75.35;;;;;;;-7.12;82.88;102527.06;1740697;82;21057;-69
2022/01/11 07:05:17;;;;;;;213.95;76.55;;;;;;;-7.05;82.87;102530.91;1739847;82;21002;-69
2022/01/11 07:07:43;;;;;;;174.40;70.25;;;;;;;-7.03;82.87;102536.94;1739336;80;21042;-69
2022/01/11 07:10:11;;;;;;;196.53;75.22;;;;;;;-6.96;82.88;102533.02;1743691;81;21522;-69
2022/01/11 07:12:37;;;;;;;216.38;81.70;;;;;;;-6.90;82.85;102542.09;1717951;82;21235;-69
2022/01/11 07:15:04;;;;;;;238.97;87.75;;;;;;;-6.94;82.87;102532.59;1740729;81;21053;-69
2022/01/11 07:17:30;;;;;;;245.75;90.95;;;;;;;-6.95;82.88;102536.05;1740498;82;21022;-70
2022/01/11 07:19:56;;;;;;;243.50;92.40;;;;;;;-6.92;82.88;102537.33;1740263;82;21022;-69
2022/01/11 07:22:22;;;;;;;232.52;86.53;;;;;;;-6.89;82.87;102543.80;1741321;80;21522;-69
2022/01/11 07:24:48;;;;;;;246.80;91.47;;;;;;;-6.85;82.87;102549.83;1743701;80;21557;-70
2022/01/11 07:27:14;;;;;;;249.20;88.17;;;;;;;-6.86;82.88;102550.72;1740170;81;25584;-70
2022/01/11 07:29:40;;;;;;;241.45;85.67;;;;;;;-6.90;82.88;102553.77;1741484;81;21014;-69
2022/01/11 07:32:07;;;;;;;249.50;89.22;;;;;;;-6.96;82.85;102555.49;1740598;81;21019;-70
2022/01/11 07:34:33;;;;;;;292.30;106.45;;;;;;;-6.93;82.85;102558.94;1742273;80;21482;-70
2022/01/11 07:36:59;;;;;;;482.15;167.65;;;;;;;-6.83;82.80;102567.12;1743446;82;22089;-70
2022/01/11 07:39:25;;;;;;;503.02;178.05;;;;;;;-6.53;82.73;102567.39;1749841;80;21019;-70
2022/01/11 07:41:51;;;;;;;416.40;149.75;;;;;;;-6.29;82.65;102571.56;1743768;82;21093;-69
2022/01/11 07:44:18;;;;;;;331.05;124.40;;;;;;;-6.21;82.63;102568.48;1743088;81;21030;-70
2022/01/11 07:46:44;;;;;;;301.70;121.28;;;;;;;-6.29;82.62;102565.07;1745671;80;21046;-69
2022/01/11 07:49:11;;;;;;;290.27;116.00;;;;;;;-6.36;82.67;102569.44;1726964;80;21479;-69
2022/01/11 07:51:37;;;;;;;312.30;127.42;;;;;;;-6.35;82.70;102566.41;1743297;82;21090;-69
2022/01/11 07:54:03;;;;;;;308.52;126.75;;;;;;;-6.32;82.69;102563.80;1744853;80;24280;-69
2022/01/11 07:56:29;;;;;;;334.65;136.88;;;;;;;-6.25;82.72;102566.78;1743566;81;21042;-69
2022/01/11 07:58:55;;;;;;;305.23;126.55;;;;;;;-6.25;82.73;102566.78;1759275;80;21499;-69
2022/01/11 08:01:21;;;;;;;371.62;141.70;;;;;;;-6.20;82.71;102557.23;1774153;79;21057;-69
2022/01/11 08:03:47;;;;;;;427.70;141.97;;;;;;;-6.12;82.70;102563.21;1774514;79;21533;-69
2022/01/11 08:06:13;;;;;;;474.38;158.42;;;;;;;-6.19;82.65;102566.73;1774400;80;21391;-69
2022/01/11 08:08:39;;;;;;;544.13;191.53;;;;;;;-6.29;82.60;102565.94;1774264;80;21030;-68
2022/01/11 08:11:06;;;;;;;659.92;241.12;;;;;;;-6.33;82.59;102560.80;1774503;79;21073;-69
2022/01/11 08:13:32;;;;;;;720.10;257.60;;;;;;;-6.32;82.61;102561.20;1774211;80;21535;-69
2022/01/11 08:15:58;;;;;;;726.83;263.53;;;;;;;-6.27;82.61;102556.42;1760747;80;25843;-69
2022/01/11 08:18:24;;;;;;;640.45;238.22;;;;;;;-6.19;82.63;102555.05;1743460;82;24636;-69
2022/01/11 08:20:50;;;;;;;438.98;157.03;;;;;;;-6.14;82.65;102551.56;1743825;82;28230;-69
2022/01/11 08:23:16;;;;;;;394.32;148.02;;;;;;;-6.09;82.65;102552.83;1738346;82;21074;-69
2022/01/11 08:25:42;;;;;;;459.80;163.28;;;;;;;-6.05;82.66;102548.48;1737223;82;21122;-69
2022/01/11 08:28:09;;;;;;;388.27;147.20;;;;;;;-5.87;82.67;102558.69;1737178;81;20991;-69
2022/01/11 08:30:35;;;;;;;338.43;128.40;;;;;;;-5.71;82.66;102565.02;1737146;81;21043;-69
2022/01/11 08:33:04;;;;;;;333.38;129.32;;;;;;;-5.57;82.69;102572.25;1740783;81;21448;-69
2022/01/11 08:35:32;;;;;;;281.57;115.22;;;;;;;-5.42;82.71;102566.48;1748676;81;21054;-69
2022/01/11 08:37:58;;;;;;;360.82;144.97;;;;;;;-5.33;82.72;102562.47;1731093;82;21815;-69
2022/01/11 08:40:25;;;;;;;319.35;135.70;;;;;;;-5.26;82.75;102568.03;1727412;82;21377;-69
2022/01/11 08:42:52;;;;;;;317.30;133.80;;;;;;;-5.16;82.77;102567.91;1757425;81;21545;-69
2022/01/11 08:45:19;;;;;;;304.82;118.75;;;;;;;-5.11;82.78;102563.97;1738816;82;21345;-69
2022/01/11 08:47:45;;;;;;;340.30;134.55;;;;;;;-5.09;82.76;102577.80;1725469;82;21078;-69
2022/01/11 08:50:13;;;;;;;238.72;97.15;;;;;;;-5.08;82.76;102578.23;1756045;81;21166;-69
2022/01/11 08:52:40;;;;;;;237.70;100.67;;;;;;;-5.04;82.73;102585.13;1755976;81;21044;-69
2022/01/11 08:55:07;;;;;;;233.93;95.12;;;;;;;-4.92;82.71;102580.20;1756435;81;21087;-69
2022/01/11 08:57:34;;;;;;;220.07;93.55;;;;;;;-4.81;82.70;102580.93;1755953;81;21076;-69
2022/01/11 09:00:03;;;;;;;207.00;93.97;;;;;;;-4.74;82.72;102589.08;1756257;81;21417;-70
2022/01/11 09:02:29;;;;;;;227.78;93.37;;;;;;;-4.67;82.72;102588.98;1756116;81;21966;-69
2022/01/11 09:04:55;;;;;;;242.82;103.95;;;;;;;-4.57;82.74;102586.68;1756617;81;21397;-69
2022/01/11 09:07:22;;;;;;;241.80;102.22;;;;;;;-4.47;82.72;102587.88;1758000;81;21036;-69
2022/01/11 09:09:48;;;;;;;219.05;94.35;;;;;;;-4.38;82.73;102588.61;1756337;81;21075;-69
2022/01/11 09:12:15;;;;;;;233.28;93.80;;;;;;;-4.32;82.75;102590.25;1756306;81;21118;-69
2022/01/11 09:14:41;;;;;;;218.67;99.30;;;;;;;-4.28;82.76;102590.62;1756014;81;22011;-69
2022/01/11 09:17:07;;;;;;;211.82;89.67;;;;;;;-4.17;82.75;102599.16;1756229;81;21068;-69
2022/01/11 09:19:33;;;;;;;207.90;93.12;;;;;;;-4.08;82.74;102597.70;1756042;81;20992;-69
2022/01/11 09:22:00;;;;;;;238.85;100.12;;;;;;;-4.02;82.72;102595.45;1756216;81;21040;-69
2022/01/11 09:24:29;;;;;;;303.48;126.45;;;;;;;-3.90;82.72;102598.72;1756259;81;21072;-69
2022/01/11 09:26:55;;;;;;;324.12;134.65;;;;;;;-3.80;82.74;102600.30;1755526;81;21224;-69
2022/01/11 09:29:21;;;;;;;273.93;119.80;;;;;;;-3.72;82.72;102595.82;1757022;81;20977;-69
2022/01/11 09:31:47;;;;;;;279.02;121.40;;;;;;;-3.64;82.70;102601.78;1756115;80;20970;-69
2022/01/11 09:34:13;;;;;;;287.55;129.12;;;;;;;-3.62;82.68;102603.90;1751133;80;28096;-69
2022/01/11 09:36:40;;;;;;;299.83;133.30;;;;;;;-3.59;82.67;102599.10;1748260;81;21016;-69
2022/01/11 09:39:06;;;;;;;278.62;115.00;;;;;;;-3.57;82.65;102596.88;1749937;80;21601;-69
2022/01/11 09:41:34;;;;;;;252.62;110.17;;;;;;;-3.57;82.65;102592.10;1749007;82;21703;-69
2022/01/11 09:44:00;;;;;;;228.58;96.40;;;;;;;-3.51;82.63;102598.50;1747777;82;21042;-69
2022/01/11 09:46:28;;;;;;;213.35;96.28;;;;;;;-3.47;82.62;102593.66;1746209;80;21028;-69
2022/01/11 09:48:54;;;;;;;173.40;74.30;;;;;;;-3.38;82.60;102588.30;1748988;80;21740;-69
2022/01/11 09:51:21;;;;;;;165.20;67.80;;;;;;;-3.31;82.57;102592.52;1772793;80;21172;-69
2022/01/11 09:53:47;;;;;;;225.45;92.82;;;;;;;-3.29;82.52;102592.47;1750240;80;20991;-68
2022/01/11 09:56:18;;;;;;;196.98;81.70;;;;;;;-3.22;82.52;102594.07;1745964;82;21083;-69
2022/01/11 09:58:59;;;;;;;259.48;109.52;;;;;;;-3.17;82.50;102598.78;1713350;83;21039;-69
2022/01/11 10:01:26;;;;;;;274.80;112.75;;;;;;;-3.15;82.52;102596.98;1748120;82;26465;-69
2022/01/11 10:04:05;;;;;;;382.23;180.32;;;;;;;-3.10;82.53;102601.69;1718260;83;21133;-69
2022/01/11 10:06:33;;;;;;;338.20;145.62;;;;;;;-3.03;82.52;102601.51;1742041;82;21039;-69
2022/01/11 10:09:18;;;;;;;369.18;161.85;;;;;;;-2.98;82.54;102606.65;1742168;82;21514;-69
2022/01/11 10:11:51;;;;;;;302.82;131.32;;;;;;;-2.97;82.52;102609.69;1737374;80;21058;-69
2022/01/11 10:14:32;;;;;;;327.93;138.05;;;;;;;-2.93;82.52;102610.05;1722791;82;21550;-69
2022/01/11 10:17:18;;;;;;;313.98;128.80;;;;;;;-2.89;82.46;102615.63;1735702;82;21204;-69
2022/01/11 10:19:49;;;;;;;256.82;112.42;;;;;;;-2.84;82.45;102617.68;1743340;82;21530;-69
2022/01/11 10:22:20;;;;;;;255.47;104.03;;;;;;;-2.76;82.44;102618.40;1741885;82;21062;-69
2022/01/11 10:24:49;;;;;;;199.12;88.45;;;;;;;-2.72;82.41;102617.45;1743727;80;21057;-69
2022/01/11 10:27:31;;;;;;;181.40;79.72;;;;;;;-2.69;82.40;102622.61;1743292;82;21049;-69
2022/01/11 10:30:14;;;;;;;179.27;78.00;;;;;;;-2.65;82.40;102626.87;1743703;82;21135;-69
2022/01/11 10:32:45;;;;;;;167.50;73.50;;;;;;;-2.63;82.42;102623.77;1746245;82;21061;-69
2022/01/11 10:35:21;;;;;;;183.90;83.72;;;;;;;-2.59;82.42;102613.69;1759493;81;21092;-69
2022/01/11 10:37:52;;;;;;;164.97;72.50;;;;;;;-2.55;82.39;102607.52;1760810;81;21073;-69
2022/01/11 10:40:35;;;;;;;167.22;76.45;;;;;;;-2.53;82.38;102610.07;1786543;80;21003;-70
2022/01/11 10:43:10;;;;;;;158.70;69.92;;;;;;;-2.47;82.39;102613.02;1792248;79;21124;-69
2022/01/11 10:45:38;;;;;;;181.22;76.20;;;;;;;-2.46;82.39;102616.89;1791949;80;20994;-69
2022/01/11 10:48:08;;;;;;;151.25;62.13;;;;;;;-2.46;82.34;102613.44;1792138;79;21494;-69
2022/01/11 10:50:42;;;;;;;182.17;78.17;;;;;;;-2.42;82.34;102618.98;1792153;79;20975;-69
2022/01/11 10:53:20;;;;;;;153.97;65.95;;;;;;;-2.39;82.31;102618.95;1788875;80;20993;-69
2022/01/11 10:55:59;;;;;;;182.43;79.10;;;;;;;-2.35;82.31;102625.80;1738263;82;21140;-70
2022/01/11 10:58:28;;;;;;;159.15;63.45;;;;;;;-2.32;82.29;102623.14;1789040;80;21037;-69
2022/01/11 11:00:56;;;;;;;201.62;87.82;;;;;;;-2.25;82.26;102625.56;1781701;79;21068;-70
2022/01/11 11:03:27;;;;;;;178.45;80.57;;;;;;;-2.19;82.25;102625.89;1757920;81;21032;-69
2022/01/11 11:05:59;;;;;;;162.77;67.82;;;;;;;-2.17;82.23;102621.48;1739368;82;21562;-69
2022/01/11 11:08:34;;;;;;;152.87;71.12;;;;;;;-2.15;82.22;102622.33;1751421;81;21572;-70